SCW773 LEPA-EKCH
Flight info
| Callsign | SCW773 |
|---|---|
| Flight time | 2h 57m |
| Altitude | 28000 |
| Route | MEROS DCT LAPIT DCT CHELY DCT LUMAS DCT MAXIR DCT LUSOL DCT BODRU DCT OKTET DCT IRMAR DCT KINES DCT VANAS DCT MOBLO DCT UBIMA DCT SOSAL DCT KORED DCT BERSU DCT DITON/N0413F290 DCT LOKTA DCT TEDGO DCT HAREM DCT LOHRE DCT BERXO DCT MAKEL N851 GESKA Z711 MONAK |
| Aircraft | RJ1H/M-SDFGIRWY/LB1 |
Departure
| Time | 2026-05-04 16:45 |
|---|---|
| Airport | Palma de Mallorca Airport (LEPA) |
Arrival
| Time | 2026-05-04 19:42 |
|---|---|
| Airport | Copenhagen Kastrup Airport (EKCH) |
| Time | Latitude | Longitude | Altitude | Speed | Heading |
|---|---|---|---|---|---|
| 2026-05-04 16:04 | 39.54582 | 2.73372 | 38 ft | 0 kts | 347° |
| 2026-05-04 16:32 | 39.54538 | 2.73384 | 38 ft | 2 kts | 356° |
| 2026-05-04 16:33 | 39.54520 | 2.73375 | 38 ft | 1 kts | 52° |
| 2026-05-04 16:33 | 39.54516 | 2.73368 | 38 ft | 0 kts | 57° |
| 2026-05-04 16:37 | 39.54519 | 2.73374 | 38 ft | 3 kts | 57° |
| 2026-05-04 16:37 | 39.54590 | 2.73520 | 38 ft | 11 kts | 54° |
| 2026-05-04 16:38 | 39.54660 | 2.73672 | 38 ft | 9 kts | 65° |
| 2026-05-04 16:39 | 39.54783 | 2.73930 | 38 ft | 16 kts | 58° |
| 2026-05-04 16:39 | 39.54974 | 2.74011 | 38 ft | 13 kts | 349° |
| 2026-05-04 16:40 | 39.55143 | 2.73876 | 38 ft | 17 kts | 328° |
| 2026-05-04 16:40 | 39.55322 | 2.73735 | 38 ft | 15 kts | 328° |
| 2026-05-04 16:41 | 39.55509 | 2.73587 | 38 ft | 16 kts | 329° |
| 2026-05-04 16:41 | 39.55754 | 2.73710 | 38 ft | 19 kts | 59° |
| 2026-05-04 16:42 | 39.55967 | 2.74162 | 38 ft | 17 kts | 57° |
| 2026-05-04 16:43 | 39.56091 | 2.74426 | 38 ft | 17 kts | 59° |
| 2026-05-04 16:43 | 39.56250 | 2.74359 | 38 ft | 16 kts | 287° |
| 2026-05-04 16:43 | 39.56181 | 2.74168 | 38 ft | 43 kts | 239° |
| 2026-05-04 16:44 | 39.54465 | 2.70607 | 602 ft | 151 kts | 231° |
| 2026-05-04 16:45 | 39.53161 | 2.68352 | 1338 ft | 170 kts | 233° |
| 2026-05-04 16:46 | 39.50978 | 2.64286 | 2875 ft | 188 kts | 223° |
| 2026-05-04 16:46 | 39.48344 | 2.64488 | 3708 ft | 232 kts | 138° |
| 2026-05-04 16:47 | 39.47504 | 2.68619 | 4866 ft | 256 kts | 92° |
| 2026-05-04 16:47 | 39.47621 | 2.73256 | 6026 ft | 263 kts | 89° |
| 2026-05-04 16:48 | 39.47976 | 2.80648 | 6772 ft | 292 kts | 95° |
| 2026-05-04 16:48 | 39.47866 | 2.83306 | 7014 ft | 298 kts | 98° |
| 2026-05-04 16:49 | 39.47380 | 2.88661 | 7831 ft | 301 kts | 102° |
| 2026-05-04 16:49 | 39.46745 | 2.94082 | 8653 ft | 306 kts | 103° |
| 2026-05-04 16:50 | 39.46049 | 2.99556 | 9606 ft | 310 kts | 103° |
| 2026-05-04 16:50 | 39.45348 | 3.05117 | 10542 ft | 315 kts | 103° |
| 2026-05-04 16:51 | 39.44639 | 3.10740 | 11579 ft | 319 kts | 102° |
| 2026-05-04 16:51 | 39.44291 | 3.13582 | 12106 ft | 321 kts | 102° |
| 2026-05-04 16:51 | 39.43571 | 3.19452 | 12722 ft | 342 kts | 102° |
| 2026-05-04 16:52 | 39.43032 | 3.25610 | 13583 ft | 351 kts | 83° |
| 2026-05-04 16:52 | 39.43832 | 3.28591 | 13978 ft | 354 kts | 61° |
| 2026-05-04 16:53 | 39.46397 | 3.34107 | 14655 ft | 361 kts | 57° |
| 2026-05-04 16:53 | 39.48924 | 3.39235 | 15295 ft | 365 kts | 57° |
| 2026-05-04 16:54 | 39.50286 | 3.42033 | 15607 ft | 368 kts | 57° |
| 2026-05-04 16:55 | 39.55173 | 3.52569 | 16768 ft | 375 kts | 59° |
| 2026-05-04 16:55 | 39.57834 | 3.58448 | 17313 ft | 379 kts | 58° |
| 2026-05-04 16:56 | 39.60551 | 3.64356 | 17835 ft | 383 kts | 58° |
| 2026-05-04 16:56 | 39.64670 | 3.73356 | 18563 ft | 390 kts | 59° |
| 2026-05-04 16:57 | 39.66034 | 3.76413 | 18781 ft | 392 kts | 59° |
| 2026-05-04 16:57 | 39.68812 | 3.82537 | 19233 ft | 395 kts | 58° |
| 2026-05-04 16:58 | 39.72992 | 3.91814 | 19867 ft | 402 kts | 58° |
| 2026-05-04 16:58 | 39.74418 | 3.94939 | 20103 ft | 403 kts | 58° |
| 2026-05-04 16:59 | 39.77255 | 4.01241 | 20499 ft | 405 kts | 59° |
| 2026-05-04 17:00 | 39.82970 | 4.14032 | 21159 ft | 412 kts | 59° |
| 2026-05-04 17:00 | 39.89209 | 4.21105 | 21537 ft | 404 kts | 20° |
| 2026-05-04 17:01 | 39.94467 | 4.23595 | 21867 ft | 399 kts | 7° |
| 2026-05-04 17:01 | 39.99885 | 4.24974 | 22341 ft | 394 kts | 3° |
| 2026-05-04 17:02 | 40.05308 | 4.26136 | 22711 ft | 395 kts | 2° |
| 2026-05-04 17:02 | 40.10738 | 4.27344 | 23088 ft | 396 kts | 3° |
| 2026-05-04 17:03 | 40.13456 | 4.27974 | 23283 ft | 396 kts | 3° |
| 2026-05-04 17:03 | 40.16172 | 4.28613 | 23481 ft | 397 kts | 3° |
| 2026-05-04 17:03 | 40.21576 | 4.29887 | 23842 ft | 396 kts | 3° |
| 2026-05-04 17:04 | 40.27019 | 4.31155 | 24143 ft | 397 kts | 4° |
| 2026-05-04 17:04 | 40.32473 | 4.32482 | 24445 ft | 398 kts | 3° |
| 2026-05-04 17:05 | 40.37926 | 4.33761 | 24734 ft | 399 kts | 3° |
| 2026-05-04 17:05 | 40.43385 | 4.35053 | 25169 ft | 398 kts | 4° |
| 2026-05-04 17:06 | 40.48833 | 4.36388 | 25512 ft | 399 kts | 4° |
| 2026-05-04 17:06 | 40.51573 | 4.37051 | 25688 ft | 399 kts | 4° |
| 2026-05-04 17:07 | 40.57024 | 4.38323 | 26031 ft | 400 kts | 4° |
| 2026-05-04 17:07 | 40.58845 | 4.38764 | 26141 ft | 401 kts | 4° |
| 2026-05-04 17:07 | 40.62513 | 4.39665 | 26364 ft | 401 kts | 4° |
| 2026-05-04 17:07 | 40.65268 | 4.40318 | 26526 ft | 401 kts | 4° |
| 2026-05-04 17:08 | 40.68021 | 4.40960 | 26686 ft | 402 kts | 4° |
| 2026-05-04 17:08 | 40.73497 | 4.42295 | 27006 ft | 403 kts | 4° |
| 2026-05-04 17:08 | 40.76255 | 4.42956 | 27158 ft | 403 kts | 4° |
| 2026-05-04 17:09 | 40.79018 | 4.43607 | 27318 ft | 403 kts | 3° |
| 2026-05-04 17:09 | 40.81782 | 4.44268 | 27472 ft | 404 kts | 4° |
| 2026-05-04 17:09 | 40.84544 | 4.44951 | 27656 ft | 404 kts | 4° |
| 2026-05-04 17:10 | 40.90065 | 4.46279 | 27895 ft | 403 kts | 3° |
| 2026-05-04 17:10 | 40.98481 | 4.48312 | 27928 ft | 416 kts | 4° |
| 2026-05-04 17:11 | 41.01347 | 4.49028 | 27929 ft | 421 kts | 4° |
| 2026-05-04 17:11 | 41.04245 | 4.49748 | 27931 ft | 425 kts | 4° |
| 2026-05-04 17:11 | 41.10129 | 4.51154 | 27939 ft | 434 kts | 4° |
| 2026-05-04 17:12 | 41.13118 | 4.51873 | 27938 ft | 438 kts | 4° |
| 2026-05-04 17:12 | 41.19185 | 4.53328 | 27932 ft | 447 kts | 4° |
| 2026-05-04 17:13 | 41.28440 | 4.55596 | 27936 ft | 457 kts | 5° |
| 2026-05-04 17:14 | 41.37849 | 4.57940 | 27906 ft | 459 kts | 5° |
| 2026-05-04 17:14 | 41.40999 | 4.58692 | 27913 ft | 459 kts | 5° |
| 2026-05-04 17:14 | 41.47302 | 4.60224 | 27933 ft | 461 kts | 5° |
| 2026-05-04 17:15 | 41.50453 | 4.61004 | 27927 ft | 459 kts | 5° |
| 2026-05-04 17:15 | 41.56680 | 4.62525 | 27918 ft | 457 kts | 5° |
| 2026-05-04 17:16 | 41.62946 | 4.64054 | 27918 ft | 457 kts | 5° |
| 2026-05-04 17:16 | 41.72265 | 4.66840 | 27926 ft | 461 kts | 14° |
| 2026-05-04 17:17 | 41.75274 | 4.68338 | 27921 ft | 463 kts | 21° |
| 2026-05-04 17:17 | 41.83722 | 4.74750 | 27925 ft | 466 kts | 30° |
| 2026-05-04 17:18 | 41.86472 | 4.77063 | 27931 ft | 467 kts | 30° |
| 2026-05-04 17:18 | 41.91990 | 4.81648 | 27929 ft | 465 kts | 29° |
| 2026-05-04 17:19 | 41.97535 | 4.86105 | 27922 ft | 464 kts | 28° |
| 2026-05-04 17:19 | 42.03074 | 4.90561 | 27928 ft | 464 kts | 29° |
| 2026-05-04 17:20 | 42.08599 | 4.95079 | 27954 ft | 465 kts | 28° |
| 2026-05-04 17:20 | 42.14109 | 4.99526 | 27976 ft | 463 kts | 29° |
| 2026-05-04 17:20 | 42.16871 | 5.01784 | 27950 ft | 463 kts | 29° |
| 2026-05-04 17:21 | 42.22363 | 5.06293 | 27937 ft | 462 kts | 29° |
| 2026-05-04 17:21 | 42.27880 | 5.10759 | 27934 ft | 462 kts | 29° |
| 2026-05-04 17:22 | 42.30631 | 5.13015 | 27945 ft | 462 kts | 30° |
| 2026-05-04 17:22 | 42.33346 | 5.15229 | 27946 ft | 461 kts | 30° |
| 2026-05-04 17:23 | 42.41582 | 5.21937 | 27946 ft | 459 kts | 29° |
| 2026-05-04 17:23 | 42.44319 | 5.24183 | 27954 ft | 460 kts | 30° |
| 2026-05-04 17:23 | 42.49779 | 5.28712 | 27975 ft | 460 kts | 30° |
| 2026-05-04 17:24 | 42.52494 | 5.30942 | 27961 ft | 461 kts | 30° |
| 2026-05-04 17:24 | 42.60716 | 5.37768 | 27962 ft | 461 kts | 30° |
| 2026-05-04 17:25 | 42.63461 | 5.40028 | 27964 ft | 461 kts | 30° |
| 2026-05-04 17:25 | 42.68950 | 5.44544 | 27983 ft | 461 kts | 30° |
| 2026-05-04 17:26 | 42.74391 | 5.49097 | 27986 ft | 462 kts | 30° |
| 2026-05-04 17:26 | 42.82627 | 5.55926 | 27970 ft | 461 kts | 30° |
| 2026-05-04 17:27 | 42.88075 | 5.60519 | 27976 ft | 460 kts | 30° |
| 2026-05-04 17:27 | 42.93549 | 5.65098 | 27982 ft | 462 kts | 30° |
| 2026-05-04 17:28 | 42.99027 | 5.69699 | 27980 ft | 462 kts | 30° |
| 2026-05-04 17:29 | 43.07222 | 5.76603 | 27992 ft | 460 kts | 30° |
| 2026-05-04 17:29 | 43.15384 | 5.83472 | 28018 ft | 461 kts | 31° |
| 2026-05-04 17:31 | 43.29011 | 5.95046 | 28025 ft | 461 kts | 30° |
| 2026-05-04 17:31 | 43.37441 | 6.01369 | 28033 ft | 459 kts | 17° |
| 2026-05-04 17:32 | 43.43523 | 6.04058 | 28029 ft | 457 kts | 11° |
| 2026-05-04 17:33 | 43.52946 | 6.05570 | 28052 ft | 453 kts | 359° |
| 2026-05-04 17:33 | 43.56095 | 6.05802 | 28044 ft | 454 kts | 359° |
| 2026-05-04 17:34 | 43.68703 | 6.06942 | 28045 ft | 453 kts | 0° |
| 2026-05-04 17:35 | 43.78043 | 6.08913 | 28013 ft | 458 kts | 13° |
| 2026-05-04 17:35 | 43.83994 | 6.12176 | 28031 ft | 461 kts | 24° |
| 2026-05-04 17:36 | 43.89729 | 6.16200 | 28044 ft | 461 kts | 25° |
| 2026-05-04 17:36 | 43.95409 | 6.20241 | 28040 ft | 460 kts | 25° |
| 2026-05-04 17:37 | 44.01150 | 6.24183 | 28040 ft | 460 kts | 24° |
| 2026-05-04 17:37 | 44.06900 | 6.28088 | 28051 ft | 460 kts | 24° |
| 2026-05-04 17:38 | 44.12620 | 6.32020 | 28071 ft | 457 kts | 25° |
| 2026-05-04 17:38 | 44.18317 | 6.35981 | 28063 ft | 458 kts | 25° |
| 2026-05-04 17:39 | 44.26873 | 6.41899 | 28085 ft | 456 kts | 25° |
| 2026-05-04 17:39 | 44.32560 | 6.45781 | 28136 ft | 455 kts | 25° |
| 2026-05-04 17:40 | 44.38187 | 6.49710 | 28093 ft | 454 kts | 25° |
| 2026-05-04 17:40 | 44.43837 | 6.53657 | 28107 ft | 453 kts | 24° |
| 2026-05-04 17:41 | 44.49480 | 6.57563 | 28095 ft | 451 kts | 25° |
| 2026-05-04 17:41 | 44.55092 | 6.61469 | 28105 ft | 450 kts | 25° |
| 2026-05-04 17:42 | 44.59796 | 6.64749 | 28122 ft | 451 kts | 25° |
| 2026-05-04 17:42 | 44.65420 | 6.68677 | 28132 ft | 451 kts | 25° |
| 2026-05-04 17:43 | 44.71045 | 6.72623 | 28127 ft | 451 kts | 25° |
| 2026-05-04 17:43 | 44.76746 | 6.76002 | 28115 ft | 444 kts | 10° |
| 2026-05-04 17:44 | 44.82826 | 6.77670 | 28141 ft | 446 kts | 8° |
| 2026-05-04 17:44 | 44.88966 | 6.78529 | 28127 ft | 441 kts | 357° |
| 2026-05-04 17:45 | 44.95094 | 6.78202 | 28119 ft | 440 kts | 353° |
| 2026-05-04 17:45 | 45.01214 | 6.77662 | 28125 ft | 440 kts | 353° |
| 2026-05-04 17:46 | 45.07327 | 6.77160 | 28128 ft | 440 kts | 354° |
| 2026-05-04 17:46 | 45.13455 | 6.76777 | 28131 ft | 441 kts | 355° |
| 2026-05-04 17:47 | 45.19586 | 6.76390 | 28118 ft | 441 kts | 354° |
| 2026-05-04 17:47 | 45.25710 | 6.75967 | 28108 ft | 444 kts | 355° |
| 2026-05-04 17:48 | 45.31886 | 6.75564 | 28100 ft | 444 kts | 355° |
| 2026-05-04 17:48 | 45.38064 | 6.75163 | 28089 ft | 444 kts | 355° |
| 2026-05-04 17:49 | 45.44259 | 6.74760 | 28112 ft | 447 kts | 355° |
| 2026-05-04 17:49 | 45.50476 | 6.74337 | 28110 ft | 447 kts | 355° |
| 2026-05-04 17:50 | 45.56690 | 6.73927 | 28106 ft | 446 kts | 354° |
| 2026-05-04 17:50 | 45.62898 | 6.73460 | 28101 ft | 448 kts | 354° |
| 2026-05-04 17:51 | 45.69110 | 6.73061 | 28146 ft | 447 kts | 355° |
| 2026-05-04 17:51 | 45.72201 | 6.72845 | 28432 ft | 444 kts | 354° |
| 2026-05-04 17:51 | 45.75282 | 6.72611 | 28617 ft | 443 kts | 354° |
| 2026-05-04 17:52 | 45.78406 | 6.72405 | 28788 ft | 443 kts | 354° |
| 2026-05-04 17:52 | 45.81489 | 6.72195 | 28920 ft | 444 kts | 354° |
| 2026-05-04 17:52 | 45.84573 | 6.71972 | 29043 ft | 444 kts | 354° |
| 2026-05-04 17:52 | 45.87664 | 6.71758 | 29089 ft | 445 kts | 354° |
| 2026-05-04 17:53 | 45.90717 | 6.71550 | 29297 ft | 444 kts | 354° |
| 2026-05-04 17:53 | 45.93808 | 6.71333 | 29416 ft | 445 kts | 354° |
| 2026-05-04 17:53 | 45.96907 | 6.71146 | 29573 ft | 445 kts | 354° |
| 2026-05-04 17:53 | 45.99994 | 6.70933 | 29675 ft | 445 kts | 354° |
| 2026-05-04 17:54 | 46.03092 | 6.70708 | 29816 ft | 446 kts | 354° |
| 2026-05-04 17:54 | 46.06190 | 6.70516 | 29927 ft | 445 kts | 355° |
| 2026-05-04 17:54 | 46.12392 | 6.70487 | 30053 ft | 447 kts | 3° |
| 2026-05-04 17:55 | 46.18509 | 6.72261 | 30045 ft | 450 kts | 14° |
| 2026-05-04 17:55 | 46.24519 | 6.74886 | 30053 ft | 451 kts | 17° |
| 2026-05-04 17:56 | 46.30509 | 6.77588 | 30056 ft | 451 kts | 16° |
| 2026-05-04 17:56 | 46.36530 | 6.80180 | 30026 ft | 451 kts | 15° |
| 2026-05-04 17:57 | 46.42496 | 6.82694 | 30030 ft | 449 kts | 15° |
| 2026-05-04 17:57 | 46.48475 | 6.85266 | 30042 ft | 448 kts | 15° |
| 2026-05-04 17:58 | 46.54281 | 6.88451 | 30047 ft | 447 kts | 34° |
| 2026-05-04 17:58 | 46.59111 | 6.94108 | 30044 ft | 446 kts | 48° |
| 2026-05-04 17:59 | 46.63101 | 7.00999 | 30033 ft | 444 kts | 54° |
| 2026-05-04 18:00 | 46.68765 | 7.11629 | 30022 ft | 444 kts | 54° |
| 2026-05-04 18:00 | 46.72633 | 7.18659 | 30027 ft | 445 kts | 53° |
| 2026-05-04 18:01 | 46.76525 | 7.25669 | 30028 ft | 444 kts | 54° |
| 2026-05-04 18:01 | 46.80381 | 7.32701 | 30020 ft | 442 kts | 54° |
| 2026-05-04 18:02 | 46.86125 | 7.43223 | 30018 ft | 441 kts | 53° |
| 2026-05-04 18:02 | 46.89949 | 7.50267 | 30026 ft | 442 kts | 54° |
| 2026-05-04 18:03 | 46.93767 | 7.57276 | 30029 ft | 442 kts | 54° |
| 2026-05-04 18:03 | 46.97592 | 7.64284 | 30019 ft | 438 kts | 54° |
| 2026-05-04 18:04 | 47.01377 | 7.71277 | 30020 ft | 438 kts | 54° |
| 2026-05-04 18:05 | 47.07046 | 7.81809 | 30016 ft | 439 kts | 54° |
| 2026-05-04 18:05 | 47.10822 | 7.88850 | 30012 ft | 438 kts | 55° |
| 2026-05-04 18:06 | 47.16111 | 7.99666 | 30023 ft | 434 kts | 61° |
| 2026-05-04 18:06 | 47.19279 | 8.07211 | 30029 ft | 433 kts | 62° |
| 2026-05-04 18:07 | 47.22439 | 8.14772 | 30036 ft | 434 kts | 61° |
| 2026-05-04 18:07 | 47.25630 | 8.22332 | 30027 ft | 434 kts | 61° |
| 2026-05-04 18:08 | 47.29068 | 8.29638 | 30025 ft | 437 kts | 49° |
| 2026-05-04 18:08 | 47.33373 | 8.35979 | 30015 ft | 438 kts | 42° |
| 2026-05-04 18:09 | 47.43460 | 8.46189 | 29992 ft | 440 kts | 33° |
| 2026-05-04 18:10 | 47.48636 | 8.51038 | 29990 ft | 440 kts | 34° |
| 2026-05-04 18:10 | 47.53792 | 8.55987 | 29993 ft | 442 kts | 34° |
| 2026-05-04 18:11 | 47.58933 | 8.61045 | 29991 ft | 444 kts | 34° |
| 2026-05-04 18:11 | 47.64097 | 8.66064 | 29996 ft | 443 kts | 34° |
| 2026-05-04 18:12 | 47.69202 | 8.71096 | 30002 ft | 443 kts | 34° |
| 2026-05-04 18:12 | 47.74367 | 8.76189 | 29997 ft | 446 kts | 34° |
| 2026-05-04 18:13 | 47.79547 | 8.81293 | 29997 ft | 447 kts | 34° |
| 2026-05-04 18:14 | 47.87312 | 8.88955 | 29988 ft | 446 kts | 34° |
| 2026-05-04 18:14 | 47.92473 | 8.94076 | 29983 ft | 445 kts | 34° |
| 2026-05-04 18:15 | 48.02745 | 9.04295 | 29983 ft | 443 kts | 34° |
| 2026-05-04 18:16 | 48.07864 | 9.09364 | 29984 ft | 444 kts | 34° |
| 2026-05-04 18:16 | 48.13058 | 9.14353 | 29982 ft | 442 kts | 24° |
| 2026-05-04 18:17 | 48.21756 | 9.18965 | 29988 ft | 442 kts | 11° |
| 2026-05-04 18:18 | 48.30864 | 9.20782 | 29983 ft | 440 kts | 3° |
| 2026-05-04 18:18 | 48.36964 | 9.21658 | 29979 ft | 441 kts | 3° |
| 2026-05-04 18:19 | 48.46121 | 9.23182 | 29959 ft | 441 kts | 4° |
| 2026-05-04 18:19 | 48.52169 | 9.24246 | 29965 ft | 440 kts | 4° |
| 2026-05-04 18:20 | 48.58277 | 9.25251 | 29961 ft | 441 kts | 4° |
| 2026-05-04 18:20 | 48.64378 | 9.26283 | 29964 ft | 441 kts | 4° |
| 2026-05-04 18:21 | 48.70483 | 9.27233 | 29966 ft | 441 kts | 3° |
| 2026-05-04 18:21 | 48.76594 | 9.28130 | 29969 ft | 440 kts | 3° |
| 2026-05-04 18:22 | 48.82657 | 9.29078 | 29965 ft | 440 kts | 4° |
| 2026-05-04 18:22 | 48.88751 | 9.30027 | 29969 ft | 440 kts | 3° |
| 2026-05-04 18:23 | 48.94856 | 9.30939 | 29981 ft | 440 kts | 3° |
| 2026-05-04 18:23 | 49.00946 | 9.31855 | 29979 ft | 439 kts | 3° |
| 2026-05-04 18:24 | 49.06001 | 9.32666 | 29974 ft | 439 kts | 3° |
| 2026-05-04 18:24 | 49.12094 | 9.33586 | 29972 ft | 439 kts | 3° |
| 2026-05-04 18:25 | 49.18175 | 9.34545 | 29977 ft | 439 kts | 3° |
| 2026-05-04 18:25 | 49.24245 | 9.35460 | 29968 ft | 437 kts | 2° |
| 2026-05-04 18:26 | 49.30309 | 9.36435 | 29980 ft | 438 kts | 3° |
| 2026-05-04 18:26 | 49.36348 | 9.37367 | 29976 ft | 439 kts | 3° |
| 2026-05-04 18:27 | 49.42421 | 9.38328 | 29970 ft | 437 kts | 3° |
| 2026-05-04 18:27 | 49.48467 | 9.39263 | 29971 ft | 436 kts | 2° |
| 2026-05-04 18:28 | 49.54507 | 9.40222 | 29972 ft | 436 kts | 3° |
| 2026-05-04 18:28 | 49.60557 | 9.41182 | 29970 ft | 436 kts | 2° |
| 2026-05-04 18:29 | 49.66592 | 9.42111 | 29962 ft | 435 kts | 3° |
| 2026-05-04 18:29 | 49.72621 | 9.43102 | 29968 ft | 435 kts | 3° |
| 2026-05-04 18:30 | 49.81671 | 9.44517 | 29982 ft | 436 kts | 3° |
| 2026-05-04 18:31 | 49.87679 | 9.45484 | 29972 ft | 438 kts | 2° |
| 2026-05-04 18:31 | 49.93748 | 9.46453 | 29966 ft | 438 kts | 2° |
| 2026-05-04 18:32 | 49.99814 | 9.47422 | 29967 ft | 437 kts | 2° |
| 2026-05-04 18:32 | 50.05872 | 9.48464 | 29963 ft | 438 kts | 5° |
| 2026-05-04 18:33 | 50.11901 | 9.50166 | 29973 ft | 442 kts | 9° |
| 2026-05-04 18:33 | 50.17915 | 9.52275 | 29969 ft | 443 kts | 9° |
| 2026-05-04 18:34 | 50.23940 | 9.54377 | 29966 ft | 443 kts | 9° |
| 2026-05-04 18:34 | 50.29924 | 9.56378 | 29967 ft | 442 kts | 9° |
| 2026-05-04 18:35 | 50.35954 | 9.58370 | 29969 ft | 443 kts | 9° |
| 2026-05-04 18:35 | 50.41981 | 9.60446 | 29964 ft | 443 kts | 9° |
| 2026-05-04 18:36 | 50.48017 | 9.62457 | 29984 ft | 443 kts | 9° |
| 2026-05-04 18:36 | 50.54029 | 9.64497 | 29973 ft | 440 kts | 9° |
| 2026-05-04 18:37 | 50.60024 | 9.66523 | 29963 ft | 440 kts | 9° |
| 2026-05-04 18:37 | 50.66013 | 9.68597 | 29967 ft | 440 kts | 9° |
| 2026-05-04 18:38 | 50.71962 | 9.70633 | 29970 ft | 440 kts | 9° |
| 2026-05-04 18:38 | 50.77961 | 9.72667 | 29972 ft | 440 kts | 9° |
| 2026-05-04 18:39 | 50.83952 | 9.74761 | 29973 ft | 440 kts | 9° |
| 2026-05-04 18:39 | 50.89942 | 9.76808 | 29970 ft | 440 kts | 9° |
| 2026-05-04 18:40 | 50.95931 | 9.78883 | 29967 ft | 440 kts | 9° |
| 2026-05-04 18:40 | 51.01908 | 9.80997 | 29966 ft | 439 kts | 9° |
| 2026-05-04 18:41 | 51.07836 | 9.83097 | 29972 ft | 439 kts | 8° |
| 2026-05-04 18:41 | 51.13805 | 9.85145 | 29971 ft | 439 kts | 8° |
| 2026-05-04 18:42 | 51.19779 | 9.87248 | 29976 ft | 439 kts | 8° |
| 2026-05-04 18:42 | 51.25678 | 9.89782 | 29960 ft | 440 kts | 14° |
| 2026-05-04 18:43 | 51.31484 | 9.92959 | 29975 ft | 441 kts | 15° |
| 2026-05-04 18:43 | 51.37275 | 9.96252 | 29975 ft | 442 kts | 15° |
| 2026-05-04 18:44 | 51.43076 | 9.99551 | 29986 ft | 442 kts | 15° |
| 2026-05-04 18:44 | 51.48876 | 10.02796 | 29978 ft | 441 kts | 15° |
| 2026-05-04 18:45 | 51.54676 | 10.06035 | 29934 ft | 440 kts | 15° |
| 2026-05-04 18:45 | 51.60474 | 10.09269 | 29969 ft | 441 kts | 15° |
| 2026-05-04 18:46 | 51.66273 | 10.12506 | 29973 ft | 441 kts | 15° |
| 2026-05-04 18:46 | 51.72072 | 10.15747 | 29975 ft | 441 kts | 15° |
| 2026-05-04 18:47 | 51.77867 | 10.18991 | 29970 ft | 440 kts | 15° |
| 2026-05-04 18:47 | 51.83622 | 10.22219 | 29980 ft | 440 kts | 15° |
| 2026-05-04 18:48 | 51.89421 | 10.25518 | 29982 ft | 442 kts | 16° |
| 2026-05-04 18:48 | 51.95214 | 10.28869 | 29967 ft | 441 kts | 15° |
| 2026-05-04 18:49 | 52.01022 | 10.32138 | 29963 ft | 441 kts | 15° |
| 2026-05-04 18:49 | 52.06813 | 10.35473 | 29961 ft | 441 kts | 15° |
| 2026-05-04 18:50 | 52.12606 | 10.38758 | 29966 ft | 441 kts | 15° |
| 2026-05-04 18:50 | 52.18352 | 10.42095 | 29960 ft | 441 kts | 15° |
| 2026-05-04 18:51 | 52.24147 | 10.45406 | 29967 ft | 441 kts | 16° |
| 2026-05-04 18:51 | 52.29948 | 10.48785 | 29984 ft | 441 kts | 15° |
| 2026-05-04 18:52 | 52.35741 | 10.52099 | 29968 ft | 441 kts | 15° |
| 2026-05-04 18:52 | 52.41519 | 10.55471 | 29973 ft | 441 kts | 15° |
| 2026-05-04 18:52 | 52.44376 | 10.57140 | 30109 ft | 441 kts | 15° |
| 2026-05-04 18:53 | 52.47269 | 10.58812 | 30250 ft | 441 kts | 15° |
| 2026-05-04 18:53 | 52.50164 | 10.60484 | 30389 ft | 440 kts | 15° |
| 2026-05-04 18:53 | 52.53050 | 10.62167 | 30525 ft | 440 kts | 15° |
| 2026-05-04 18:54 | 52.58831 | 10.65579 | 30734 ft | 441 kts | 15° |
| 2026-05-04 18:54 | 52.61724 | 10.67269 | 30867 ft | 441 kts | 15° |
| 2026-05-04 18:54 | 52.64611 | 10.68956 | 30913 ft | 440 kts | 15° |
| 2026-05-04 18:55 | 52.70369 | 10.72329 | 30928 ft | 439 kts | 15° |
| 2026-05-04 18:55 | 52.78994 | 10.77475 | 30944 ft | 440 kts | 15° |
| 2026-05-04 18:56 | 52.84779 | 10.80939 | 30945 ft | 443 kts | 15° |
| 2026-05-04 18:56 | 52.90582 | 10.84422 | 30938 ft | 443 kts | 15° |
| 2026-05-04 18:57 | 52.96376 | 10.87862 | 30945 ft | 442 kts | 15° |
| 2026-05-04 18:57 | 53.02153 | 10.91315 | 30947 ft | 441 kts | 15° |
| 2026-05-04 18:58 | 53.07896 | 10.94781 | 30946 ft | 441 kts | 15° |
| 2026-05-04 18:58 | 53.13674 | 10.98274 | 30944 ft | 442 kts | 15° |
| 2026-05-04 18:59 | 53.19465 | 11.01737 | 30947 ft | 442 kts | 15° |
| 2026-05-04 18:59 | 53.25257 | 11.05237 | 30951 ft | 442 kts | 14° |
| 2026-05-04 19:00 | 53.31118 | 11.07638 | 30969 ft | 423 kts | 350° |
| 2026-05-04 19:00 | 53.36927 | 11.06607 | 30962 ft | 419 kts | 345° |
| 2026-05-04 19:01 | 53.42684 | 11.05257 | 30953 ft | 419 kts | 345° |
| 2026-05-04 19:01 | 53.48458 | 11.03812 | 30952 ft | 418 kts | 344° |
| 2026-05-04 19:02 | 53.54207 | 11.02383 | 30965 ft | 415 kts | 344° |
| 2026-05-04 19:02 | 53.59912 | 11.00987 | 30959 ft | 414 kts | 344° |
| 2026-05-04 19:03 | 53.65586 | 10.99597 | 30964 ft | 415 kts | 344° |
| 2026-05-04 19:03 | 53.71317 | 10.98190 | 30975 ft | 415 kts | 344° |
| 2026-05-04 19:04 | 53.77048 | 10.96760 | 30976 ft | 417 kts | 344° |
| 2026-05-04 19:04 | 53.82795 | 10.95348 | 30969 ft | 417 kts | 344° |
| 2026-05-04 19:05 | 53.88529 | 10.93946 | 30965 ft | 416 kts | 344° |
| 2026-05-04 19:05 | 53.94211 | 10.92557 | 30965 ft | 416 kts | 344° |
| 2026-05-04 19:06 | 53.99884 | 10.91169 | 30965 ft | 416 kts | 344° |
| 2026-05-04 19:06 | 54.05619 | 10.89779 | 30970 ft | 416 kts | 344° |
| 2026-05-04 19:07 | 54.11349 | 10.88401 | 30967 ft | 415 kts | 344° |
| 2026-05-04 19:07 | 54.16114 | 10.87256 | 30974 ft | 415 kts | 344° |
| 2026-05-04 19:08 | 54.21842 | 10.85878 | 30976 ft | 416 kts | 344° |
| 2026-05-04 19:08 | 54.27588 | 10.84593 | 30997 ft | 417 kts | 345° |
| 2026-05-04 19:09 | 54.33325 | 10.83532 | 30978 ft | 415 kts | 345° |
| 2026-05-04 19:09 | 54.39066 | 10.82440 | 30974 ft | 414 kts | 345° |
| 2026-05-04 19:10 | 54.43837 | 10.81530 | 30973 ft | 415 kts | 345° |
| 2026-05-04 19:10 | 54.50546 | 10.80244 | 30974 ft | 415 kts | 345° |
| 2026-05-04 19:11 | 54.56286 | 10.79081 | 31000 ft | 414 kts | 344° |
| 2026-05-04 19:11 | 54.61992 | 10.77907 | 30977 ft | 412 kts | 344° |
| 2026-05-04 19:12 | 54.70524 | 10.76232 | 30974 ft | 412 kts | 345° |
| 2026-05-04 19:13 | 54.76200 | 10.75078 | 30978 ft | 413 kts | 345° |
| 2026-05-04 19:13 | 54.81935 | 10.73932 | 30620 ft | 417 kts | 346° |
| 2026-05-04 19:13 | 54.84810 | 10.73351 | 30253 ft | 416 kts | 346° |
| 2026-05-04 19:14 | 54.87693 | 10.72795 | 29865 ft | 416 kts | 346° |
| 2026-05-04 19:14 | 54.90570 | 10.72213 | 29439 ft | 416 kts | 346° |
| 2026-05-04 19:14 | 54.93449 | 10.71633 | 29125 ft | 415 kts | 346° |
| 2026-05-04 19:14 | 54.96317 | 10.71070 | 29016 ft | 414 kts | 346° |
| 2026-05-04 19:15 | 54.99182 | 10.70508 | 28986 ft | 414 kts | 346° |
| 2026-05-04 19:15 | 55.02058 | 10.69939 | 28691 ft | 419 kts | 346° |
| 2026-05-04 19:15 | 55.04956 | 10.69352 | 28283 ft | 419 kts | 346° |
| 2026-05-04 19:15 | 55.07844 | 10.68739 | 27900 ft | 417 kts | 348° |
| 2026-05-04 19:16 | 55.10725 | 10.68114 | 27509 ft | 417 kts | 348° |
| 2026-05-04 19:16 | 55.13608 | 10.67501 | 27117 ft | 418 kts | 348° |
| 2026-05-04 19:16 | 55.16498 | 10.66927 | 26733 ft | 419 kts | 349° |
| 2026-05-04 19:16 | 55.19405 | 10.66401 | 26137 ft | 423 kts | 353° |
| 2026-05-04 19:17 | 55.22348 | 10.66995 | 25525 ft | 430 kts | 14° |
| 2026-05-04 19:17 | 55.24999 | 10.69396 | 24937 ft | 432 kts | 35° |
| 2026-05-04 19:17 | 55.27092 | 10.73069 | 24364 ft | 430 kts | 48° |
| 2026-05-04 19:17 | 55.28943 | 10.77155 | 23793 ft | 426 kts | 53° |
| 2026-05-04 19:18 | 55.30415 | 10.81636 | 23157 ft | 423 kts | 64° |
| 2026-05-04 19:18 | 55.31482 | 10.86426 | 22494 ft | 419 kts | 70° |
| 2026-05-04 19:18 | 55.32352 | 10.91295 | 21828 ft | 416 kts | 73° |
| 2026-05-04 19:18 | 55.33142 | 10.96159 | 21175 ft | 413 kts | 73° |
| 2026-05-04 19:19 | 55.33899 | 11.01001 | 20542 ft | 409 kts | 74° |
| 2026-05-04 19:19 | 55.34643 | 11.05797 | 19915 ft | 405 kts | 73° |
| 2026-05-04 19:19 | 55.35394 | 11.10544 | 19301 ft | 402 kts | 73° |
| 2026-05-04 19:19 | 55.36159 | 11.15255 | 18686 ft | 400 kts | 72° |
| 2026-05-04 19:20 | 55.36934 | 11.19940 | 18082 ft | 398 kts | 72° |
| 2026-05-04 19:20 | 55.37706 | 11.24598 | 17396 ft | 396 kts | 72° |
| 2026-05-04 19:20 | 55.38482 | 11.29242 | 16738 ft | 394 kts | 72° |
| 2026-05-04 19:20 | 55.39246 | 11.33848 | 16097 ft | 391 kts | 73° |
| 2026-05-04 19:21 | 55.39982 | 11.38426 | 15531 ft | 377 kts | 73° |
| 2026-05-04 19:21 | 55.40639 | 11.42556 | 15019 ft | 328 kts | 73° |
| 2026-05-04 19:21 | 55.41237 | 11.46255 | 14503 ft | 306 kts | 73° |
| 2026-05-04 19:21 | 55.41847 | 11.49947 | 13989 ft | 319 kts | 73° |
| 2026-05-04 19:22 | 55.42461 | 11.53731 | 13472 ft | 323 kts | 73° |
| 2026-05-04 19:22 | 55.43073 | 11.57545 | 12942 ft | 325 kts | 73° |
| 2026-05-04 19:22 | 55.43706 | 11.61378 | 12425 ft | 326 kts | 68° |
| 2026-05-04 19:22 | 55.44882 | 11.64714 | 11914 ft | 320 kts | 43° |
| 2026-05-04 19:23 | 55.46483 | 11.67434 | 11432 ft | 319 kts | 39° |
| 2026-05-04 19:23 | 55.48113 | 11.70013 | 10952 ft | 319 kts | 38° |
| 2026-05-04 19:23 | 55.49792 | 11.72581 | 10468 ft | 318 kts | 37° |
| 2026-05-04 19:23 | 55.51475 | 11.75111 | 9991 ft | 318 kts | 37° |
| 2026-05-04 19:24 | 55.53162 | 11.77625 | 9488 ft | 316 kts | 37° |
| 2026-05-04 19:24 | 55.54833 | 11.80157 | 8968 ft | 315 kts | 37° |
| 2026-05-04 19:24 | 55.56482 | 11.82682 | 8457 ft | 304 kts | 38° |
| 2026-05-04 19:24 | 55.57978 | 11.84905 | 8121 ft | 260 kts | 32° |
| 2026-05-04 19:25 | 55.59481 | 11.86685 | 7974 ft | 260 kts | 29° |
| 2026-05-04 19:25 | 55.60994 | 11.88403 | 7952 ft | 258 kts | 28° |
| 2026-05-04 19:25 | 55.62515 | 11.90100 | 7950 ft | 258 kts | 28° |
| 2026-05-04 19:25 | 55.64039 | 11.91789 | 7953 ft | 258 kts | 28° |
| 2026-05-04 19:26 | 55.65563 | 11.93472 | 7957 ft | 258 kts | 28° |
| 2026-05-04 19:26 | 55.67067 | 11.95130 | 7962 ft | 258 kts | 28° |
| 2026-05-04 19:26 | 55.68593 | 11.96808 | 7966 ft | 258 kts | 28° |
| 2026-05-04 19:26 | 55.70119 | 11.98486 | 7965 ft | 258 kts | 28° |
| 2026-05-04 19:27 | 55.71650 | 12.00170 | 7971 ft | 258 kts | 28° |
| 2026-05-04 19:27 | 55.73177 | 12.01856 | 7972 ft | 259 kts | 27° |
| 2026-05-04 19:27 | 55.74703 | 12.03554 | 7788 ft | 259 kts | 28° |
| 2026-05-04 19:27 | 55.76227 | 12.05252 | 7534 ft | 257 kts | 28° |
| 2026-05-04 19:28 | 55.77738 | 12.06939 | 7277 ft | 256 kts | 28° |
| 2026-05-04 19:28 | 55.79243 | 12.08612 | 7025 ft | 254 kts | 28° |
| 2026-05-04 19:28 | 55.80740 | 12.10275 | 6769 ft | 253 kts | 28° |
| 2026-05-04 19:28 | 55.82223 | 12.11956 | 6510 ft | 253 kts | 33° |
| 2026-05-04 19:29 | 55.83300 | 12.14377 | 6214 ft | 259 kts | 69° |
| 2026-05-04 19:29 | 55.83453 | 12.17533 | 5932 ft | 258 kts | 104° |
| 2026-05-04 19:29 | 55.82674 | 12.20341 | 5664 ft | 252 kts | 131° |
| 2026-05-04 19:29 | 55.81568 | 12.22737 | 5399 ft | 251 kts | 133° |
| 2026-05-04 19:30 | 55.80388 | 12.25009 | 5144 ft | 249 kts | 137° |
| 2026-05-04 19:30 | 55.79204 | 12.27256 | 4904 ft | 248 kts | 134° |
| 2026-05-04 19:30 | 55.78097 | 12.29610 | 4658 ft | 248 kts | 130° |
| 2026-05-04 19:30 | 55.77096 | 12.32103 | 4406 ft | 248 kts | 120° |
| 2026-05-04 19:31 | 55.76627 | 12.35043 | 4156 ft | 251 kts | 98° |
| 2026-05-04 19:31 | 55.76366 | 12.38122 | 4036 ft | 252 kts | 99° |
| 2026-05-04 19:31 | 55.76120 | 12.41181 | 4000 ft | 248 kts | 96° |
| 2026-05-04 19:31 | 55.75944 | 12.44230 | 3992 ft | 248 kts | 95° |
| 2026-05-04 19:32 | 55.75792 | 12.47276 | 3990 ft | 248 kts | 95° |
| 2026-05-04 19:32 | 55.75630 | 12.50285 | 3986 ft | 248 kts | 95° |
| 2026-05-04 19:32 | 55.75467 | 12.53336 | 3984 ft | 248 kts | 95° |
| 2026-05-04 19:32 | 55.75305 | 12.56390 | 3991 ft | 248 kts | 95° |
| 2026-05-04 19:33 | 55.75142 | 12.59428 | 3992 ft | 248 kts | 95° |
| 2026-05-04 19:33 | 55.75085 | 12.62477 | 3988 ft | 247 kts | 77° |
| 2026-05-04 19:33 | 55.75836 | 12.65135 | 4007 ft | 241 kts | 47° |
| 2026-05-04 19:33 | 55.76959 | 12.67366 | 4010 ft | 242 kts | 43° |
| 2026-05-04 19:34 | 55.78139 | 12.69494 | 3983 ft | 240 kts | 43° |
| 2026-05-04 19:34 | 55.79304 | 12.71620 | 3725 ft | 239 kts | 42° |
| 2026-05-04 19:34 | 55.80459 | 12.73712 | 3629 ft | 232 kts | 42° |
| 2026-05-04 19:34 | 55.81565 | 12.75710 | 3608 ft | 222 kts | 42° |
| 2026-05-04 19:35 | 55.82612 | 12.77663 | 3514 ft | 217 kts | 50° |
| 2026-05-04 19:35 | 55.83108 | 12.80186 | 3306 ft | 222 kts | 89° |
| 2026-05-04 19:35 | 55.83025 | 12.82855 | 3257 ft | 215 kts | 92° |
| 2026-05-04 19:35 | 55.82928 | 12.85431 | 3265 ft | 202 kts | 93° |
| 2026-05-04 19:36 | 55.82812 | 12.87876 | 3144 ft | 196 kts | 94° |
| 2026-05-04 19:36 | 55.82544 | 12.90242 | 3037 ft | 197 kts | 119° |
| 2026-05-04 19:36 | 55.81541 | 12.91773 | 3015 ft | 192 kts | 165° |
| 2026-05-04 19:36 | 55.80242 | 12.91822 | 3014 ft | 187 kts | 191° |
| 2026-05-04 19:37 | 55.78950 | 12.91488 | 3008 ft | 187 kts | 195° |
| 2026-05-04 19:37 | 55.77797 | 12.90568 | 2996 ft | 180 kts | 228° |
| 2026-05-04 19:37 | 55.76909 | 12.89002 | 2998 ft | 181 kts | 225° |
| 2026-05-04 19:37 | 55.75957 | 12.87546 | 3003 ft | 182 kts | 224° |
| 2026-05-04 19:38 | 55.74996 | 12.86093 | 2997 ft | 181 kts | 225° |
| 2026-05-04 19:38 | 55.74044 | 12.84633 | 2995 ft | 181 kts | 225° |
| 2026-05-04 19:38 | 55.73089 | 12.83144 | 2831 ft | 184 kts | 225° |
| 2026-05-04 19:38 | 55.72132 | 12.81655 | 2571 ft | 181 kts | 225° |
| 2026-05-04 19:39 | 55.71183 | 12.80175 | 2329 ft | 182 kts | 225° |
| 2026-05-04 19:39 | 55.70247 | 12.78717 | 2099 ft | 181 kts | 225° |
| 2026-05-04 19:39 | 55.69310 | 12.77257 | 1846 ft | 172 kts | 225° |
| 2026-05-04 19:39 | 55.68457 | 12.75946 | 1615 ft | 154 kts | 226° |
| 2026-05-04 19:40 | 55.67688 | 12.74755 | 1398 ft | 141 kts | 226° |
| 2026-05-04 19:40 | 55.66963 | 12.73620 | 1200 ft | 138 kts | 226° |
| 2026-05-04 19:40 | 55.66250 | 12.72496 | 1017 ft | 136 kts | 225° |
| 2026-05-04 19:40 | 55.65529 | 12.71368 | 842 ft | 141 kts | 225° |
| 2026-05-04 19:41 | 55.64791 | 12.70203 | 694 ft | 142 kts | 224° |
| 2026-05-04 19:41 | 55.64049 | 12.69103 | 550 ft | 137 kts | 220° |
| 2026-05-04 19:41 | 55.63322 | 12.67989 | 374 ft | 139 kts | 225° |
| 2026-05-04 19:41 | 55.62591 | 12.66833 | 111 ft | 141 kts | 222° |
| 2026-05-04 19:42 | 55.61906 | 12.65770 | 26 ft | 115 kts | 222° |
| 2026-05-04 19:42 | 55.62218 | 12.66257 | 23 ft | 3 kts | 229° |